Time;durP1;ratioP1;P1;durP2;ratioP2;P2;SDS_P1;SDS_P2;PMS_P1;PMS_P2;Temp;Humidity;BMP_temperature;BMP_pressure;BME280_temperature;BME280_humidity;BME280_pressure;Samples;Min_cycle;Max_cycle;Signal;HPM_P1;HPM_P2
2023/09/06 00:02:07;;;;;;;4.70;2.45;;;18.60;99.90;;;;;;4996999;28;20026;-69
2023/09/06 00:04:33;;;;;;;4.40;1.85;;;18.60;99.90;;;;;;4996704;28;20041;-69
2023/09/06 00:06:59;;;;;;;4.93;2.42;;;18.50;99.90;;;;;;5000481;28;20029;-69
2023/09/06 00:09:24;;;;;;;3.72;1.95;;;18.50;99.90;;;;;;5003552;28;20026;-69
2023/09/06 00:11:50;;;;;;;4.82;2.05;;;18.50;99.90;;;;;;5003288;28;20030;-69
2023/09/06 00:14:15;;;;;;;8.07;2.50;;;18.30;99.90;;;;;;5003339;28;20076;-69
2023/09/06 00:16:41;;;;;;;3.72;2.10;;;18.30;99.90;;;;;;5003929;28;20022;-69
2023/09/06 00:19:07;;;;;;;4.57;1.85;;;18.10;99.90;;;;;;5003229;28;20125;-69
2023/09/06 00:21:36;;;;;;;8.70;2.10;;;18.00;99.90;;;;;;5003526;28;20070;-69
2023/09/06 00:24:03;;;;;;;5.43;2.17;;;18.00;99.90;;;;;;5004120;28;20018;-69
2023/09/06 00:26:28;;;;;;;4.68;1.77;;;18.10;99.90;;;;;;5004077;28;20029;-70
2023/09/06 00:28:54;;;;;;;4.85;2.13;;;18.10;99.90;;;;;;5003393;28;20027;-69
2023/09/06 00:31:20;;;;;;;3.28;1.60;;;18.10;99.90;;;;;;5003868;28;20022;-69
2023/09/06 00:33:45;;;;;;;6.95;2.45;;;18.10;99.90;;;;;;5004127;28;20121;-69
2023/09/06 00:36:12;;;;;;;4.05;2.15;;;18.20;99.90;;;;;;5004465;28;20048;-70
2023/09/06 00:38:38;;;;;;;2.78;1.88;;;18.00;99.90;;;;;;5004111;28;20030;-69
2023/09/06 00:41:04;;;;;;;2.67;1.75;;;18.00;99.90;;;;;;5004180;28;20056;-69
2023/09/06 00:43:30;;;;;;;2.47;1.65;;;18.00;99.90;;;;;;5003835;28;20058;-69
2023/09/06 00:45:56;;;;;;;4.85;1.90;;;18.10;99.90;;;;;;5003852;28;20026;-69
2023/09/06 00:48:24;;;;;;;4.30;1.70;;;18.10;99.90;;;;;;5003490;28;20026;-69
2023/09/06 00:50:50;;;;;;;6.55;1.98;;;18.00;99.90;;;;;;5003113;28;20018;-69
2023/09/06 00:53:16;;;;;;;4.07;1.90;;;17.90;99.90;;;;;;5002905;28;20038;-69
2023/09/06 00:55:42;;;;;;;2.58;1.77;;;17.90;99.90;;;;;;5003126;28;20118;-64
2023/09/06 00:58:08;;;;;;;2.03;1.50;;;17.80;99.90;;;;;;5003186;28;20080;-64
2023/09/06 01:00:35;;;;;;;4.70;2.05;;;17.70;99.90;;;;;;5002795;28;20073;-71
2023/09/06 01:03:03;;;;;;;3.15;1.60;;;17.70;99.90;;;;;;5002828;28;20022;-71
2023/09/06 01:05:36;;;;;;;6.68;1.73;;;17.70;99.90;;;;;;5002712;28;20018;-71
2023/09/06 01:08:06;;;;;;;1.65;1.38;;;17.70;99.90;;;;;;5003622;28;20026;-70
2023/09/06 01:10:34;;;;;;;3.08;2.30;;;17.70;99.90;;;;;;5002647;28;20031;-71
2023/09/06 01:13:00;;;;;;;2.78;1.60;;;17.60;99.90;;;;;;5002981;28;20022;-70
2023/09/06 01:15:25;;;;;;;4.18;1.30;;;17.50;99.90;;;;;;5002884;28;20022;-71
2023/09/06 01:17:52;;;;;;;16.60;1.85;;;17.50;99.90;;;;;;5000541;28;20030;-71
2023/09/06 01:20:36;;;;;;;1.90;1.25;;;17.50;99.90;;;;;;4999636;28;20038;-64
2023/09/06 01:23:40;;;;;;;6.15;1.67;;;17.50;99.90;;;;;;5000292;28;20026;-64
2023/09/06 01:26:06;;;;;;;8.07;1.70;;;17.40;99.90;;;;;;5000463;28;20054;-70
2023/09/06 01:28:32;;;;;;;2.72;1.40;;;17.40;99.90;;;;;;4999322;28;20034;-71
2023/09/06 01:31:01;;;;;;;6.50;1.50;;;17.30;99.90;;;;;;5000408;28;20064;-70
2023/09/06 01:33:30;;;;;;;5.57;1.83;;;17.30;99.90;;;;;;5000444;28;20073;-70
2023/09/06 01:35:56;;;;;;;6.32;1.80;;;17.20;99.90;;;;;;4999300;28;20026;-70
2023/09/06 01:38:22;;;;;;;2.88;1.20;;;17.20;99.90;;;;;;4999195;28;20031;-70
2023/09/06 01:40:48;;;;;;;2.17;1.60;;;17.10;99.90;;;;;;4999181;28;20073;-70
2023/09/06 01:43:13;;;;;;;2.45;1.73;;;17.10;99.90;;;;;;4999401;28;20034;-71
2023/09/06 01:45:50;;;;;;;5.22;1.98;;;17.10;99.90;;;;;;4999057;28;20023;-71
2023/09/06 01:48:16;;;;;;;4.22;1.80;;;17.00;99.90;;;;;;4999065;28;20029;-70
2023/09/06 01:50:42;;;;;;;6.00;1.45;;;17.10;99.90;;;;;;4999759;28;20027;-71
2023/09/06 01:53:08;;;;;;;1.85;1.27;;;17.10;99.90;;;;;;4999095;28;20026;-69
2023/09/06 01:55:33;;;;;;;7.80;2.22;;;17.10;99.90;;;;;;4999073;28;20026;-69
2023/09/06 01:57:59;;;;;;;3.60;1.85;;;17.10;99.90;;;;;;4998804;28;20026;-69
2023/09/06 02:00:28;;;;;;;3.47;1.50;;;17.10;99.90;;;;;;4999696;28;20022;-69
2023/09/06 02:03:00;;;;;;;3.97;1.58;;;17.10;99.90;;;;;;4999626;28;20018;-69
2023/09/06 02:05:25;;;;;;;2.03;1.50;;;17.00;99.90;;;;;;4998728;28;20045;-64
2023/09/06 02:07:51;;;;;;;4.20;1.77;;;17.00;99.90;;;;;;4998573;28;20023;-64
2023/09/06 02:10:17;;;;;;;3.08;1.77;;;17.00;99.90;;;;;;4998866;28;20030;-71
2023/09/06 02:12:44;;;;;;;6.78;1.55;;;16.90;99.90;;;;;;4998685;28;20038;-71
2023/09/06 02:15:13;;;;;;;6.00;1.50;;;16.90;99.90;;;;;;4998802;28;20054;-71
2023/09/06 02:17:42;;;;;;;12.90;1.73;;;17.00;99.90;;;;;;4998547;28;20062;-65
2023/09/06 02:20:21;;;;;;;2.72;1.50;;;16.90;99.90;;;;;;4998817;28;20034;-69
2023/09/06 02:22:52;;;;;;;2.83;1.77;;;16.90;99.90;;;;;;4998397;28;20030;-65
2023/09/06 02:25:21;;;;;;;4.55;1.42;;;17.00;99.90;;;;;;4998496;28;20022;-65
2023/09/06 02:27:47;;;;;;;2.25;1.35;;;17.00;99.90;;;;;;4999065;28;20031;-65
2023/09/06 02:30:13;;;;;;;7.95;1.70;;;16.90;99.90;;;;;;4998445;28;20027;-65
2023/09/06 02:32:40;;;;;;;6.78;1.38;;;16.90;99.90;;;;;;4999142;28;20022;-65
2023/09/06 02:35:06;;;;;;;8.45;1.40;;;16.80;99.90;;;;;;4999073;28;20116;-65
2023/09/06 02:37:33;;;;;;;2.05;1.40;;;16.70;99.90;;;;;;4998097;28;20055;-65
2023/09/06 02:39:58;;;;;;;3.53;1.30;;;16.80;99.90;;;;;;4998874;28;20022;-65
2023/09/06 02:42:24;;;;;;;3.50;1.63;;;16.70;99.90;;;;;;4997985;28;20031;-65
2023/09/06 02:44:50;;;;;;;3.90;1.98;;;16.70;99.90;;;;;;4998782;28;20029;-65
2023/09/06 02:47:17;;;;;;;5.13;2.00;;;16.50;99.90;;;;;;4998019;28;20022;-65
2023/09/06 02:49:43;;;;;;;3.03;1.80;;;16.50;99.90;;;;;;4998724;28;20025;-65
2023/09/06 02:52:20;;;;;;;5.78;1.60;;;16.50;99.90;;;;;;4997834;28;20026;-65
2023/09/06 02:54:49;;;;;;;3.40;1.55;;;16.50;99.90;;;;;;4997833;28;20030;-65
2023/09/06 02:57:18;;;;;;;3.55;1.55;;;16.40;99.90;;;;;;4997700;28;20106;-65
2023/09/06 02:59:43;;;;;;;4.45;1.80;;;16.40;99.90;;;;;;4997785;28;20026;-65
2023/09/06 03:02:12;;;;;;;7.07;1.85;;;16.40;99.90;;;;;;4998937;28;20033;-65
2023/09/06 03:04:40;;;;;;;2.78;1.27;;;16.40;99.90;;;;;;4998033;28;20023;-65
2023/09/06 03:07:09;;;;;;;2.65;2.05;;;16.30;99.90;;;;;;4998294;28;20045;-65
2023/09/06 03:09:35;;;;;;;3.80;1.30;;;16.30;99.90;;;;;;4997504;28;20057;-65
2023/09/06 03:12:11;;;;;;;10.25;1.50;;;16.30;99.90;;;;;;4998264;28;20026;-65
2023/09/06 03:14:37;;;;;;;4.90;1.27;;;16.30;99.90;;;;;;4998196;28;20026;-65
2023/09/06 03:17:08;;;;;;;2.92;1.33;;;16.30;99.90;;;;;;4997396;28;20027;-65
2023/09/06 03:19:38;;;;;;;4.65;2.00;;;16.30;99.90;;;;;;5034306;22;20049;-65
2023/09/06 03:22:06;;;;;;;5.40;1.42;;;16.20;99.90;;;;;;5033860;28;20113;-66
2023/09/06 03:24:33;;;;;;;3.38;1.52;;;16.20;99.90;;;;;;5033651;28;20022;-66
2023/09/06 03:26:58;;;;;;;3.70;1.33;;;16.10;99.90;;;;;;5018124;28;20109;-66
2023/09/06 03:29:25;;;;;;;1.38;0.93;;;16.10;99.90;;;;;;5016797;28;20053;-66
2023/09/06 03:31:53;;;;;;;3.22;1.20;;;16.10;99.90;;;;;;5017910;28;20084;-66
2023/09/06 03:34:19;;;;;;;4.78;1.20;;;16.10;99.90;;;;;;5016743;28;20026;-67
2023/09/06 03:36:51;;;;;;;2.85;1.38;;;16.10;99.90;;;;;;5017231;28;20026;-66
2023/09/06 03:39:19;;;;;;;3.05;1.23;;;16.00;99.90;;;;;;5016838;28;20028;-66
2023/09/06 03:41:46;;;;;;;4.75;1.42;;;16.00;99.90;;;;;;5016863;28;20029;-66
2023/09/06 03:44:12;;;;;;;4.03;1.10;;;16.00;99.90;;;;;;5016622;28;20026;-66
2023/09/06 03:46:38;;;;;;;3.35;1.45;;;16.10;99.90;;;;;;5016616;28;20026;-66
2023/09/06 03:49:08;;;;;;;3.47;1.42;;;16.10;99.90;;;;;;5017157;28;20109;-66
2023/09/06 03:51:35;;;;;;;2.63;1.48;;;16.10;99.90;;;;;;5017480;28;20025;-66
2023/09/06 03:54:05;;;;;;;2.83;1.55;;;16.10;99.90;;;;;;5016928;28;20029;-66
2023/09/06 03:56:31;;;;;;;1.95;1.38;;;16.10;99.90;;;;;;5017638;28;20025;-66
2023/09/06 03:59:00;;;;;;;2.25;1.50;;;16.10;99.90;;;;;;5016731;28;20022;-66
2023/09/06 04:01:28;;;;;;;4.55;1.98;;;16.10;99.90;;;;;;5016629;28;20025;-66
2023/09/06 04:03:54;;;;;;;6.18;1.60;;;16.00;99.90;;;;;;5016328;28;20054;-66
2023/09/06 04:06:19;;;;;;;3.38;1.38;;;16.00;99.90;;;;;;5016563;28;20050;-66
2023/09/06 04:08:50;;;;;;;8.50;1.80;;;15.90;99.90;;;;;;5016291;28;20026;-66
2023/09/06 04:11:16;;;;;;;3.92;1.63;;;15.90;99.90;;;;;;5017273;28;20108;-66
2023/09/06 04:13:43;;;;;;;3.88;1.65;;;15.90;99.90;;;;;;5017092;28;20026;-66
2023/09/06 04:16:09;;;;;;;2.92;1.40;;;15.90;99.90;;;;;;5016398;28;20026;-66
2023/09/06 04:18:34;;;;;;;2.47;1.52;;;15.90;99.90;;;;;;5016045;28;20033;-66
2023/09/06 04:21:00;;;;;;;1.95;1.27;;;15.80;99.90;;;;;;5017198;28;20045;-72
2023/09/06 04:23:25;;;;;;;3.50;1.20;;;15.90;99.90;;;;;;5016203;28;20037;-72
2023/09/06 04:25:51;;;;;;;4.95;1.50;;;15.80;99.90;;;;;;5016208;28;20026;-72
2023/09/06 04:28:20;;;;;;;13.02;1.70;;;15.80;99.90;;;;;;5016856;28;20018;-72
2023/09/06 04:30:46;;;;;;;3.40;1.25;;;15.70;99.90;;;;;;5016865;28;20029;-72
2023/09/06 04:33:14;;;;;;;4.18;2.80;;;15.70;99.90;;;;;;5016184;28;20026;-72
2023/09/06 04:35:47;;;;;;;4.97;1.60;;;15.70;99.90;;;;;;5016124;28;20033;-72
2023/09/06 04:38:15;;;;;;;2.38;1.40;;;15.70;99.90;;;;;;5016285;28;20021;-72
2023/09/06 04:40:44;;;;;;;7.03;1.58;;;15.70;99.90;;;;;;5016081;28;20030;-72
2023/09/06 04:43:10;;;;;;;6.05;1.55;;;15.70;99.90;;;;;;5015906;28;20116;-72
2023/09/06 04:45:39;;;;;;;8.20;1.55;;;15.80;99.90;;;;;;5016626;28;20113;-72
2023/09/06 04:48:12;;;;;;;3.78;1.33;;;15.70;99.90;;;;;;5015927;28;20080;-72
2023/09/06 04:50:39;;;;;;;3.72;1.50;;;15.70;99.90;;;;;;5016148;28;20026;-72
2023/09/06 04:53:05;;;;;;;2.55;1.30;;;15.70;99.90;;;;;;5017318;28;20049;-72
2023/09/06 04:55:35;;;;;;;6.80;1.40;;;15.60;99.90;;;;;;5020761;28;20021;-72
2023/09/06 04:58:08;;;;;;;5.88;1.25;;;15.60;99.90;;;;;;5020565;28;20022;-72
2023/09/06 05:00:41;;;;;;;3.17;1.20;;;15.50;99.90;;;;;;5020799;28;20025;-72
2023/09/06 05:03:13;;;;;;;5.38;1.73;;;15.60;99.90;;;;;;5019705;28;20099;-72
2023/09/06 05:05:40;;;;;;;3.42;2.10;;;15.60;99.90;;;;;;5020529;28;20216;-72
2023/09/06 05:08:06;;;;;;;5.43;1.80;;;15.60;99.90;;;;;;5019930;28;20027;-72
2023/09/06 05:10:32;;;;;;;1.65;1.23;;;15.60;99.90;;;;;;5019674;28;20022;-72
2023/09/06 05:12:58;;;;;;;2.13;1.40;;;15.60;99.90;;;;;;5019389;28;20084;-72
2023/09/06 05:15:23;;;;;;;2.17;1.60;;;15.60;99.90;;;;;;5019392;28;20026;-72
2023/09/06 05:17:49;;;;;;;4.65;2.13;;;15.60;99.90;;;;;;5019572;28;20049;-72
2023/09/06 05:20:35;;;;;;;6.35;2.00;;;15.60;99.90;;;;;;5019958;28;20029;-72
2023/09/06 05:23:12;;;;;;;3.83;2.03;;;15.60;99.90;;;;;;5019840;28;20076;-72
2023/09/06 05:25:39;;;;;;;2.92;1.70;;;15.60;99.90;;;;;;5019587;28;20033;-72
2023/09/06 05:28:08;;;;;;;3.47;1.48;;;15.70;99.90;;;;;;5019448;28;20022;-72
2023/09/06 05:30:40;;;;;;;8.70;1.60;;;15.70;99.90;;;;;;5019283;28;20056;-72
2023/09/06 05:33:06;;;;;;;3.42;1.60;;;15.70;99.90;;;;;;5019993;28;20029;-72
2023/09/06 05:35:32;;;;;;;6.22;1.83;;;15.60;99.90;;;;;;5018826;28;20032;-72
2023/09/06 05:37:57;;;;;;;2.92;1.45;;;15.50;99.90;;;;;;5018936;28;20065;-72
2023/09/06 05:40:23;;;;;;;4.65;1.83;;;15.40;99.90;;;;;;5019240;28;20021;-72
2023/09/06 05:42:50;;;;;;;4.20;1.70;;;15.40;99.90;;;;;;5018560;28;20030;-72
2023/09/06 05:45:17;;;;;;;1.85;1.30;;;15.40;99.90;;;;;;5019639;28;20022;-72
2023/09/06 05:47:42;;;;;;;2.75;1.60;;;15.40;99.90;;;;;;5019394;28;20049;-72
2023/09/06 05:50:08;;;;;;;1.77;1.52;;;15.40;99.90;;;;;;5018526;28;20026;-72
2023/09/06 05:52:34;;;;;;;2.88;1.77;;;15.50;99.90;;;;;;5019501;28;20033;-72
2023/09/06 05:55:01;;;;;;;1.70;1.50;;;15.60;99.90;;;;;;5018489;28;20032;-72
2023/09/06 05:57:26;;;;;;;2.47;1.92;;;15.60;99.90;;;;;;5018507;28;20030;-72
2023/09/06 05:59:52;;;;;;;6.13;1.88;;;15.70;99.90;;;;;;5018311;28;20028;-72
2023/09/06 06:02:17;;;;;;;3.03;2.42;;;15.90;99.90;;;;;;5019348;28;20137;-72
2023/09/06 06:04:46;;;;;;;13.52;2.60;;;16.10;99.90;;;;;;5019108;28;20018;-72
2023/09/06 06:07:16;;;;;;;3.70;2.35;;;16.30;99.90;;;;;;5018309;28;20154;-72
2023/09/06 06:09:42;;;;;;;11.30;2.47;;;16.40;99.90;;;;;;5018822;28;20026;-72
2023/09/06 06:12:08;;;;;;;5.25;2.15;;;16.60;99.90;;;;;;5018147;28;20037;-73
2023/09/06 06:14:35;;;;;;;3.20;1.73;;;16.70;99.90;;;;;;5018110;28;20109;-72
2023/09/06 06:17:01;;;;;;;2.60;1.60;;;16.50;99.90;;;;;;5019228;28;20030;-72
2023/09/06 06:19:27;;;;;;;5.93;2.20;;;16.60;99.90;;;;;;5018172;28;20097;-72
2023/09/06 06:21:53;;;;;;;4.47;2.38;;;16.70;99.90;;;;;;5018027;28;20112;-72
2023/09/06 06:24:18;;;;;;;4.55;2.17;;;16.80;99.90;;;;;;5018228;28;20025;-72
2023/09/06 06:26:44;;;;;;;6.70;2.35;;;16.80;99.90;;;;;;5019274;28;20045;-72
2023/09/06 06:29:09;;;;;;;7.82;2.50;;;16.80;99.90;;;;;;5017806;28;20033;-72
2023/09/06 06:31:35;;;;;;;3.25;2.33;;;16.90;99.90;;;;;;5018804;28;20037;-72
2023/09/06 06:34:01;;;;;;;4.53;3.00;;;16.90;99.90;;;;;;5017805;28;20076;-72
2023/09/06 06:36:26;;;;;;;3.92;3.05;;;16.90;99.90;;;;;;5018642;28;20080;-72
2023/09/06 06:38:52;;;;;;;4.88;2.95;;;17.00;99.90;;;;;;5017618;28;20025;-72
2023/09/06 06:41:20;;;;;;;4.60;2.75;;;17.00;99.90;;;;;;5018543;28;20037;-72
2023/09/06 06:43:49;;;;;;;3.88;3.05;;;17.00;99.90;;;;;;5017724;28;20029;-72
2023/09/06 06:46:32;;;;;;;4.25;2.88;;;17.10;99.90;;;;;;5017590;28;20030;-72
2023/09/06 06:48:58;;;;;;;3.60;2.55;;;17.20;99.90;;;;;;5018366;28;20017;-73
2023/09/06 06:51:31;;;;;;;8.43;2.65;;;17.40;99.90;;;;;;5017721;28;20028;-72
2023/09/06 06:53:57;;;;;;;6.40;3.15;;;17.50;99.90;;;;;;5017391;28;20022;-72
2023/09/06 06:56:23;;;;;;;5.30;2.85;;;17.50;99.90;;;;;;5017459;28;20026;-72
2023/09/06 06:58:49;;;;;;;3.78;2.85;;;17.50;99.90;;;;;;5018254;28;20033;-73
2023/09/06 07:01:14;;;;;;;6.78;2.65;;;17.50;99.90;;;;;;5017524;28;20450;-72
2023/09/06 07:03:40;;;;;;;3.63;2.60;;;17.60;99.90;;;;;;5018194;28;20033;-73
2023/09/06 07:06:07;;;;;;;6.20;2.75;;;17.80;99.90;;;;;;5017568;28;20120;-73
2023/09/06 07:08:32;;;;;;;9.15;2.83;;;17.90;99.90;;;;;;5017465;28;20022;-73
2023/09/06 07:10:59;;;;;;;3.63;2.40;;;17.90;99.90;;;;;;5017329;28;20033;-73
2023/09/06 07:13:25;;;;;;;4.30;2.35;;;18.10;99.90;;;;;;5017993;28;20029;-73
2023/09/06 07:15:50;;;;;;;5.25;2.60;;;18.10;99.90;;;;;;5017412;28;20030;-73
2023/09/06 07:18:16;;;;;;;3.53;2.63;;;18.10;99.90;;;;;;5017117;28;20139;-72
2023/09/06 07:20:42;;;;;;;4.22;2.28;;;18.20;99.90;;;;;;5017797;28;20049;-72
2023/09/06 07:23:08;;;;;;;5.03;2.90;;;18.30;99.90;;;;;;5017081;28;20064;-73
2023/09/06 07:25:33;;;;;;;5.03;2.58;;;18.50;99.90;;;;;;5016812;28;20022;-72
2023/09/06 07:27:59;;;;;;;8.20;3.00;;;18.50;99.90;;;;;;5017569;28;20026;-72
2023/09/06 07:30:25;;;;;;;9.70;2.88;;;18.60;99.90;;;;;;5017087;28;20033;-72
2023/09/06 07:32:51;;;;;;;4.32;2.60;;;18.70;99.90;;;;;;5017716;28;20026;-72
2023/09/06 07:35:16;;;;;;;3.72;2.60;;;18.80;99.90;;;;;;5016721;28;20120;-72
2023/09/06 07:37:43;;;;;;;4.72;2.53;;;18.90;99.90;;;;;;5016783;28;20021;-72
2023/09/06 07:40:09;;;;;;;4.10;2.78;;;18.90;99.90;;;;;;5017077;28;20097;-72
2023/09/06 07:42:41;;;;;;;5.25;2.33;;;18.90;99.90;;;;;;5017978;28;20021;-72
2023/09/06 07:45:07;;;;;;;4.07;2.25;;;19.00;99.90;;;;;;5016681;28;20030;-72
2023/09/06 07:47:33;;;;;;;8.60;2.80;;;19.10;99.90;;;;;;5016608;28;20033;-72
2023/09/06 07:49:59;;;;;;;3.92;2.13;;;19.10;99.90;;;;;;5016650;28;20084;-72
2023/09/06 07:52:24;;;;;;;5.93;2.75;;;19.20;99.90;;;;;;5016786;28;20083;-72
2023/09/06 07:54:50;;;;;;;5.82;2.78;;;19.40;99.90;;;;;;5016610;28;20025;-72
2023/09/06 07:57:16;;;;;;;5.45;2.40;;;19.40;99.90;;;;;;5016501;28;20061;-70
2023/09/06 07:59:41;;;;;;;5.68;2.40;;;19.40;99.90;;;;;;5016375;28;20086;-72
2023/09/06 08:02:08;;;;;;;6.35;2.17;;;19.50;99.90;;;;;;5016521;28;20096;-72
2023/09/06 08:04:33;;;;;;;10.05;2.67;;;19.60;99.90;;;;;;5016248;28;20113;-71
2023/09/06 08:06:59;;;;;;;4.97;2.75;;;19.70;99.90;;;;;;5017306;28;20112;-71
2023/09/06 08:09:24;;;;;;;8.43;3.10;;;19.80;99.90;;;;;;5017434;28;20045;-72
2023/09/06 08:11:50;;;;;;;10.88;3.63;;;19.90;99.90;;;;;;5016463;28;20029;-71
2023/09/06 08:14:15;;;;;;;5.40;2.55;;;20.00;99.90;;;;;;5016770;28;20063;-72
2023/09/06 08:16:41;;;;;;;6.30;3.10;;;20.10;99.90;;;;;;5016457;28;20033;-71
2023/09/06 08:19:07;;;;;;;5.00;2.80;;;20.20;99.90;;;;;;5016369;28;20041;-71
2023/09/06 08:21:34;;;;;;;5.38;2.75;;;20.30;99.90;;;;;;5017514;28;20014;-71
2023/09/06 08:24:02;;;;;;;3.58;2.30;;;20.30;99.90;;;;;;5016236;28;20084;-71
2023/09/06 08:26:27;;;;;;;3.00;2.28;;;20.40;99.90;;;;;;5016619;28;20025;-72
2023/09/06 08:28:53;;;;;;;4.85;2.50;;;20.50;99.90;;;;;;5019751;28;20014;-72
2023/09/06 08:31:19;;;;;;;7.30;3.17;;;20.60;99.90;;;;;;5021069;28;20079;-72
2023/09/06 08:33:44;;;;;;;8.75;2.85;;;20.60;99.90;;;;;;5021186;28;20053;-72
2023/09/06 08:36:11;;;;;;;5.90;2.90;;;20.70;99.90;;;;;;5020126;28;20040;-71
2023/09/06 08:38:39;;;;;;;3.78;2.67;;;20.80;99.90;;;;;;5020193;28;20033;-72
2023/09/06 08:41:04;;;;;;;3.25;2.50;;;20.90;99.90;;;;;;5020274;28;20060;-72
2023/09/06 08:43:35;;;;;;;4.38;2.88;;;21.00;99.90;;;;;;5020210;28;20029;-72
2023/09/06 08:46:19;;;;;;;4.80;2.85;;;21.10;99.90;;;;;;5020871;28;20014;-72
2023/09/06 08:48:46;;;;;;;5.55;2.55;;;21.20;99.90;;;;;;5020783;28;20022;-72
2023/09/06 08:51:12;;;;;;;8.10;2.80;;;21.30;99.90;;;;;;5020496;28;20026;-72
2023/09/06 08:53:43;;;;;;;5.45;2.65;;;21.40;99.90;;;;;;5020112;28;20026;-72
2023/09/06 08:56:09;;;;;;;4.43;3.10;;;21.50;99.90;;;;;;5020599;28;20026;-72
2023/09/06 08:58:35;;;;;;;7.55;2.60;;;21.50;99.90;;;;;;5019770;28;20026;-72
2023/09/06 09:01:03;;;;;;;4.32;2.72;;;21.60;99.90;;;;;;5020832;28;20105;-73
2023/09/06 09:03:29;;;;;;;3.95;3.30;;;21.60;99.90;;;;;;5020336;28;20099;-72
2023/09/06 09:06:06;;;;;;;4.18;2.72;;;21.70;99.90;;;;;;5019915;28;20022;-73
2023/09/06 09:08:32;;;;;;;4.82;2.95;;;21.70;99.90;;;;;;5020283;28;20057;-72
2023/09/06 09:11:11;;;;;;;4.38;2.85;;;21.90;99.90;;;;;;5019445;28;20113;-72
2023/09/06 09:13:37;;;;;;;2.97;2.30;;;22.10;99.90;;;;;;5019862;28;20036;-72
2023/09/06 09:16:10;;;;;;;8.23;2.88;;;22.30;99.90;;;;;;5020405;28;20018;-73
2023/09/06 09:18:38;;;;;;;5.38;2.90;;;22.40;99.90;;;;;;5043695;22;20030;-64
2023/09/06 09:21:04;;;;;;;3.75;2.63;;;22.50;99.90;;;;;;5019687;28;20030;-64
2023/09/06 09:23:40;;;;;;;4.18;3.20;;;22.70;99.90;;;;;;5020294;28;20026;-64
2023/09/06 09:26:08;;;;;;;5.50;2.92;;;22.80;99.90;;;;;;5019953;28;20022;-64
2023/09/06 09:28:35;;;;;;;5.03;2.80;;;22.80;99.90;;;;;;5036407;28;20072;-64
2023/09/06 09:31:01;;;;;;;10.00;2.97;;;22.80;99.90;;;;;;5019536;28;20045;-64
2023/09/06 09:33:28;;;;;;;8.25;2.78;;;22.90;99.90;;;;;;5018922;28;20026;-64
2023/09/06 09:35:55;;;;;;;4.50;2.70;;;23.00;99.90;;;;;;5019767;28;20071;-65
2023/09/06 09:38:21;;;;;;;5.50;3.05;;;23.10;99.90;;;;;;5018643;28;20037;-64
2023/09/06 09:41:04;;;;;;;5.07;2.80;;;23.30;99.90;;;;;;5018528;28;20026;-64
2023/09/06 09:43:30;;;;;;;6.32;3.20;;;23.40;99.90;;;;;;5019638;28;20022;-64
2023/09/06 09:45:55;;;;;;;5.32;2.80;;;23.60;99.90;;;;;;5018779;28;20033;-64
2023/09/06 09:48:29;;;;;;;5.63;3.28;;;23.70;99.90;;;;;;5019240;28;20033;-64
2023/09/06 09:50:55;;;;;;;6.35;3.83;;;23.70;99.90;;;;;;5019695;28;20033;-64
2023/09/06 09:53:25;;;;;;;6.30;3.22;;;24.10;99.90;;;;;;5018748;28;20029;-64
2023/09/06 09:55:55;;;;;;;6.07;3.17;;;24.40;99.90;;;;;;5018620;28;20037;-64
2023/09/06 09:58:21;;;;;;;9.45;3.40;;;24.60;99.90;;;;;;5018933;28;20030;-64
2023/09/06 10:00:50;;;;;;;6.97;2.97;;;24.60;99.90;;;;;;5019110;28;20029;-64
2023/09/06 10:03:17;;;;;;;9.48;3.13;;;24.60;99.90;;;;;;5019205;28;20030;-64
2023/09/06 10:05:44;;;;;;;7.32;3.15;;;24.80;99.90;;;;;;5018581;28;20084;-64
2023/09/06 10:08:12;;;;;;;8.57;3.35;;;24.90;99.90;;;;;;5018391;28;20030;-64
2023/09/06 10:10:39;;;;;;;6.97;3.70;;;25.20;99.90;;;;;;5018502;28;20026;-64
2023/09/06 10:13:07;;;;;;;5.65;3.20;;;25.30;99.90;;;;;;5018535;28;20029;-64
2023/09/06 10:15:34;;;;;;;4.38;2.75;;;25.30;99.90;;;;;;5018258;28;20026;-64
2023/09/06 10:18:00;;;;;;;4.13;3.22;;;25.40;99.90;;;;;;5019455;28;20037;-64
2023/09/06 10:20:30;;;;;;;5.07;3.40;;;25.70;99.90;;;;;;5018439;28;20036;-64
2023/09/06 10:22:57;;;;;;;6.72;3.97;;;26.10;99.90;;;;;;5017946;28;20093;-63
2023/09/06 10:25:25;;;;;;;4.80;3.35;;;26.20;99.90;;;;;;5018322;28;20018;-64
2023/09/06 10:27:55;;;;;;;6.35;3.33;;;26.40;99.90;;;;;;5018805;28;20022;-64
2023/09/06 10:30:28;;;;;;;7.60;3.42;;;26.50;99.90;;;;;;5018754;28;20036;-63
2023/09/06 10:32:54;;;;;;;5.63;3.75;;;26.80;99.90;;;;;;5018781;28;20026;-64
2023/09/06 10:35:30;;;;;;;7.07;3.70;;;27.10;99.90;;;;;;5018799;28;20029;-64
2023/09/06 10:38:04;;;;;;;4.00;3.58;;;27.40;99.90;;;;;;5018822;28;20033;-64
2023/09/06 10:40:51;;;;;;;5.18;3.47;;;27.50;99.90;;;;;;5018440;28;20029;-64
2023/09/06 10:43:19;;;;;;;3.78;3.35;;;27.60;99.90;;;;;;5017786;28;20161;-64
2023/09/06 10:46:18;;;;;;;4.38;3.72;;;27.80;99.90;;;;;;5017954;28;20029;-63
2023/09/06 10:49:12;;;;;;;4.65;3.55;;;28.00;99.90;;;;;;5017560;28;20022;-64
2023/09/06 10:51:57;;;;;;;5.82;3.28;;;28.10;99.90;;;;;;5018298;28;20022;-64
2023/09/06 10:54:24;;;;;;;8.55;3.78;;;28.50;99.90;;;;;;5017741;28;20093;-64
2023/09/06 10:57:00;;;;;;;4.00;3.60;;;28.80;99.90;;;;;;5017406;28;20030;-64
2023/09/06 10:59:27;;;;;;;5.78;3.10;;;29.20;99.90;;;;;;5018153;28;20088;-64
2023/09/06 11:02:15;;;;;;;5.57;3.58;;;29.40;99.90;;;;;;5017459;28;20055;-64
2023/09/06 11:04:42;;;;;;;3.65;3.20;;;29.40;99.90;;;;;;5017287;28;20026;-64
2023/09/06 11:07:11;;;;;;;4.78;3.75;;;29.70;99.90;;;;;;5018238;28;20022;-65
2023/09/06 11:09:45;;;;;;;6.07;3.70;;;29.80;99.90;;;;;;5017093;28;20026;-64
2023/09/06 11:12:12;;;;;;;6.35;3.95;;;29.80;99.90;;;;;;5018180;28;20029;-65
2023/09/06 11:14:37;;;;;;;4.03;3.10;;;29.90;99.90;;;;;;5017026;28;20025;-65
2023/09/06 11:17:03;;;;;;;5.55;3.72;;;30.00;99.90;;;;;;5017424;28;20052;-64
2023/09/06 11:19:29;;;;;;;4.72;3.30;;;30.10;99.90;;;;;;5017085;28;20037;-64
2023/09/06 11:22:09;;;;;;;7.80;3.70;;;29.60;99.90;;;;;;5017065;28;20037;-64
2023/09/06 11:24:36;;;;;;;4.00;3.47;;;29.70;99.90;;;;;;5017772;28;20022;-64
2023/09/06 11:27:19;;;;;;;6.63;3.70;;;30.00;99.90;;;;;;5016870;28;20033;-64
2023/09/06 11:29:46;;;;;;;8.55;3.58;;;29.90;99.90;;;;;;5017146;28;20030;-64
2023/09/06 11:32:12;;;;;;;4.22;3.50;;;30.20;99.90;;;;;;5017097;28;20054;-64
2023/09/06 11:34:42;;;;;;;8.25;3.38;;;30.40;99.90;;;;;;5017305;28;20088;-64
2023/09/06 11:37:10;;;;;;;5.88;3.63;;;30.40;99.90;;;;;;5017590;28;20114;-64
2023/09/06 11:39:40;;;;;;;3.88;3.35;;;30.50;99.90;;;;;;5017926;28;20089;-64
2023/09/06 11:42:15;;;;;;;7.63;3.30;;;30.30;99.90;;;;;;5016690;28;20102;-64
2023/09/06 11:44:47;;;;;;;6.00;3.78;;;30.60;99.90;;;;;;5016767;28;20040;-64
2023/09/06 11:47:18;;;;;;;4.55;3.17;;;30.90;99.90;;;;;;5016665;28;20092;-64
2023/09/06 11:49:45;;;;;;;4.00;3.22;;;31.20;99.90;;;;;;5017224;28;20049;-64
2023/09/06 11:52:18;;;;;;;4.78;3.25;;;31.30;99.90;;;;;;5017360;28;20029;-64
2023/09/06 11:54:49;;;;;;;5.35;3.55;;;31.20;99.90;;;;;;5017512;28;20029;-64
2023/09/06 11:57:23;;;;;;;7.80;3.33;;;31.50;99.90;;;;;;5017416;28;20025;-64
2023/09/06 11:59:52;;;;;;;5.85;3.70;;;31.30;99.90;;;;;;5016790;28;20037;-64
2023/09/06 12:02:20;;;;;;;4.23;3.47;;;31.40;99.90;;;;;;5016048;28;20026;-64
2023/09/06 12:05:11;;;;;;;7.65;3.35;;;31.50;99.90;;;;;;5016697;28;20022;-64
2023/09/06 12:07:37;;;;;;;4.70;2.92;;;31.80;98.80;;;;;;5017180;28;20026;-64
2023/09/06 12:10:04;;;;;;;4.65;3.10;;;32.00;99.50;;;;;;5017083;28;20018;-64
2023/09/06 12:12:43;;;;;;;4.53;3.30;;;32.20;98.10;;;;;;5016540;28;20026;-64
2023/09/06 12:15:19;;;;;;;3.40;3.10;;;31.80;97.80;;;;;;5017412;28;20121;-64
2023/09/06 12:17:46;;;;;;;5.50;3.42;;;32.00;97.70;;;;;;5017052;28;20022;-64
2023/09/06 12:20:23;;;;;;;9.38;3.22;;;32.10;98.50;;;;;;5016403;28;20045;-64
2023/09/06 12:22:50;;;;;;;3.55;3.25;;;32.30;97.80;;;;;;5016206;28;20076;-64
2023/09/06 12:25:18;;;;;;;3.85;3.20;;;32.20;96.00;;;;;;5016136;28;20109;-64
2023/09/06 12:27:44;;;;;;;6.50;3.13;;;32.50;95.10;;;;;;5016270;28;20029;-64
2023/09/06 12:30:10;;;;;;;3.15;2.85;;;32.60;95.00;;;;;;5016438;28;20026;-64
2023/09/06 12:32:39;;;;;;;3.55;3.03;;;32.80;94.60;;;;;;5016983;28;20022;-64
2023/09/06 12:35:06;;;;;;;4.15;3.33;;;32.80;93.70;;;;;;5016194;28;20112;-64
2023/09/06 12:37:31;;;;;;;4.32;3.40;;;32.90;94.50;;;;;;5016328;28;20041;-64
2023/09/06 12:39:56;;;;;;;3.80;3.15;;;32.80;92.70;;;;;;5016411;28;20030;-64
2023/09/06 12:42:22;;;;;;;3.42;3.13;;;33.00;93.00;;;;;;5015869;28;20029;-64
2023/09/06 12:44:49;;;;;;;5.60;2.92;;;32.90;92.40;;;;;;5016089;28;20018;-64
2023/09/06 12:47:14;;;;;;;3.30;2.92;;;33.30;93.20;;;;;;5015931;28;20042;-65
2023/09/06 12:49:40;;;;;;;9.10;3.17;;;33.40;91.40;;;;;;5015965;28;20018;-64
2023/09/06 12:52:05;;;;;;;3.30;2.85;;;33.60;92.90;;;;;;5016954;28;20117;-64